createdAt,value
2018-05-31T00:00:39.906Z,2.80
2018-05-31T00:03:07.416Z,2.60
2018-05-31T00:05:34.960Z,2.33
2018-05-31T00:08:02.443Z,2.67
2018-05-31T00:10:30.016Z,3.03
2018-05-31T00:12:57.474Z,3.00
2018-05-31T00:15:24.989Z,2.50
2018-05-31T00:17:52.559Z,2.57
2018-05-31T00:20:20.106Z,2.80
2018-05-31T00:22:47.598Z,2.70
2018-05-31T00:25:15.133Z,2.90
2018-05-31T00:27:42.639Z,2.73
2018-05-31T00:30:10.138Z,2.87
2018-05-31T00:32:37.697Z,2.70
2018-05-31T00:35:05.256Z,2.50
2018-05-31T00:37:32.817Z,2.93
2018-05-31T00:40:00.375Z,2.73
2018-05-31T00:42:27.933Z,3.03
2018-05-31T00:44:55.426Z,3.20
2018-05-31T00:47:22.949Z,2.90
2018-05-31T00:49:50.431Z,2.83
2018-05-31T00:52:17.934Z,2.73
2018-05-31T00:54:45.423Z,2.80
2018-05-31T00:57:12.979Z,2.80
2018-05-31T00:59:40.640Z,2.60
2018-05-31T01:02:08.118Z,3.30
2018-05-31T01:04:35.657Z,2.70
2018-05-31T01:07:03.214Z,2.70
2018-05-31T01:09:30.772Z,2.77
2018-05-31T01:11:58.342Z,3.20
2018-05-31T01:14:25.890Z,2.70
2018-05-31T01:16:53.450Z,2.87
2018-05-31T01:19:20.930Z,2.80
2018-05-31T01:21:48.467Z,3.00
2018-05-31T01:24:15.959Z,3.33
2018-05-31T01:26:43.466Z,3.03
2018-05-31T01:29:10.951Z,3.43
2018-05-31T01:31:38.454Z,3.17
2018-05-31T01:34:05.951Z,2.80
2018-05-31T01:36:33.447Z,2.87
2018-05-31T01:39:00.946Z,3.47
2018-05-31T01:41:28.436Z,3.10
2018-05-31T01:43:55.926Z,3.10
2018-05-31T01:46:23.438Z,2.87
2018-05-31T01:48:50.922Z,2.77
2018-05-31T01:51:18.455Z,3.37
2018-05-31T01:53:45.954Z,3.00
2018-05-31T01:56:13.490Z,2.90
2018-05-31T01:58:41.029Z,2.80
2018-05-31T02:01:08.563Z,3.03
2018-05-31T02:03:36.147Z,2.63
2018-05-31T02:06:03.632Z,3.00
2018-05-31T02:08:31.118Z,2.97
2018-05-31T02:10:58.607Z,2.97
2018-05-31T02:13:26.095Z,3.20
2018-05-31T02:15:53.634Z,3.00
2018-05-31T02:18:21.191Z,3.17
2018-05-31T02:20:48.755Z,2.83
2018-05-31T02:23:16.310Z,3.00
2018-05-31T02:25:43.871Z,2.90
2018-05-31T02:28:11.429Z,3.10
2018-05-31T02:30:38.931Z,3.27
2018-05-31T02:33:06.554Z,2.97
2018-05-31T02:35:34.104Z,3.00
2018-05-31T02:38:01.603Z,2.70
2018-05-31T02:40:29.122Z,3.10
2018-05-31T02:42:56.618Z,3.10
2018-05-31T02:45:24.159Z,2.83
2018-05-31T02:47:51.694Z,3.17
2018-05-31T02:50:19.243Z,2.90
2018-05-31T02:52:46.755Z,3.33
2018-05-31T02:55:14.268Z,2.80
2018-05-31T02:57:41.782Z,2.83
2018-05-31T03:00:09.294Z,2.60
2018-05-31T03:02:36.843Z,3.07
2018-05-31T03:05:04.322Z,3.30
2018-05-31T03:07:31.837Z,2.83
2018-05-31T03:09:59.303Z,2.83
2018-05-31T03:12:26.863Z,3.20
2018-05-31T03:14:54.434Z,2.90
2018-05-31T03:17:21.991Z,2.60
2018-05-31T03:19:49.487Z,3.03
2018-05-31T03:22:16.988Z,3.07
2018-05-31T03:24:44.483Z,2.90
2018-05-31T03:27:11.967Z,2.90
2018-05-31T03:29:39.458Z,3.00
2018-05-31T03:32:06.951Z,3.37
2018-05-31T03:34:34.430Z,3.10
2018-05-31T03:37:01.953Z,3.10
2018-05-31T03:39:29.451Z,3.10
2018-05-31T03:41:56.967Z,3.30
2018-05-31T03:44:24.526Z,3.20
2018-05-31T03:46:52.011Z,3.07
2018-05-31T03:49:19.513Z,3.20
2018-05-31T03:51:47.071Z,3.27
2018-05-31T03:54:14.636Z,3.70
2018-05-31T03:56:42.218Z,3.10
2018-05-31T03:59:09.777Z,2.90
2018-05-31T04:01:37.337Z,3.27
2018-05-31T04:04:04.896Z,3.07
2018-05-31T04:06:32.455Z,3.60
2018-05-31T04:09:00.014Z,3.17
2018-05-31T04:11:27.510Z,3.30
2018-05-31T04:13:55.025Z,2.80
2018-05-31T04:16:22.514Z,3.10
2018-05-31T04:18:50.041Z,2.63
2018-05-31T04:21:17.522Z,3.07
2018-05-31T04:23:45.034Z,2.70
2018-05-31T04:26:12.521Z,3.40
2018-05-31T04:28:40.149Z,2.83
2018-05-31T04:31:07.650Z,3.07
2018-05-31T04:33:35.191Z,3.23
2018-05-31T04:36:02.648Z,2.93
2018-05-31T04:38:30.155Z,2.90
2018-05-31T04:40:57.776Z,3.40
2018-05-31T04:43:25.329Z,2.80
2018-05-31T04:45:52.882Z,2.80
2018-05-31T04:48:20.442Z,2.97
2018-05-31T04:50:47.951Z,2.90
2018-05-31T04:53:15.444Z,3.13
2018-05-31T04:55:42.943Z,2.83
2018-05-31T04:58:10.466Z,3.20
2018-05-31T05:00:37.979Z,3.00
2018-05-31T05:03:05.506Z,2.60
2018-05-31T05:05:33.051Z,2.80
2018-05-31T05:08:00.612Z,2.40
2018-05-31T05:10:28.171Z,2.77
2018-05-31T05:12:55.669Z,2.70
2018-05-31T05:15:23.206Z,2.43
2018-05-31T05:17:50.740Z,2.70
2018-05-31T05:20:18.302Z,2.40
2018-05-31T05:22:45.790Z,2.57
2018-05-31T05:25:13.283Z,2.30
2018-05-31T05:27:40.876Z,2.50
2018-05-31T05:30:08.389Z,5.33
2018-05-31T05:32:35.885Z,5.43
2018-05-31T05:35:03.372Z,2.40
2018-05-31T05:37:30.932Z,2.67
2018-05-31T05:39:58.459Z,2.40
2018-05-31T05:42:26.019Z,2.40
2018-05-31T05:44:53.514Z,2.20
2018-05-31T05:47:21.007Z,2.40
2018-05-31T05:49:48.594Z,2.30
2018-05-31T05:52:16.082Z,2.47
2018-05-31T05:54:43.578Z,2.20
2018-05-31T05:57:11.169Z,2.10
2018-05-31T05:59:38.668Z,2.27
2018-05-31T06:02:06.286Z,2.40
2018-05-31T06:04:33.841Z,2.13
2018-05-31T06:07:01.405Z,2.23
2018-05-31T06:09:28.931Z,2.10
2018-05-31T06:11:56.515Z,2.00
2018-05-31T06:14:24.180Z,2.23
2018-05-31T06:16:51.678Z,2.03
2018-05-31T06:19:19.159Z,2.13
2018-05-31T06:21:46.655Z,1.80
2018-05-31T06:24:14.187Z,2.13
2018-05-31T06:26:41.774Z,2.03
2018-05-31T06:29:09.334Z,2.20
2018-05-31T06:31:36.894Z,1.80
2018-05-31T06:34:04.398Z,2.20
2018-05-31T06:36:31.906Z,1.80
2018-05-31T06:38:59.408Z,1.90
2018-05-31T06:41:26.886Z,2.17
2018-05-31T06:43:54.482Z,1.97
2018-05-31T06:46:21.962Z,2.10
2018-05-31T06:48:49.495Z,2.03
2018-05-31T06:51:16.978Z,2.37
2018-05-31T06:53:44.499Z,1.90
2018-05-31T06:56:11.977Z,1.93
2018-05-31T06:58:39.465Z,1.63
2018-05-31T07:01:06.943Z,1.80
2018-05-31T07:03:34.441Z,2.10
2018-05-31T07:06:01.915Z,2.10
2018-05-31T07:08:29.501Z,2.10
2018-05-31T07:10:56.967Z,1.83
2018-05-31T07:13:24.468Z,2.20
2018-05-31T07:15:52.056Z,2.00
2018-05-31T07:18:19.589Z,1.97
2018-05-31T07:20:47.568Z,1.97
2018-05-31T07:23:15.120Z,1.87
2018-05-31T07:25:42.619Z,1.60
2018-05-31T07:28:10.129Z,1.60
2018-05-31T07:30:37.630Z,2.00
2018-05-31T07:33:05.146Z,1.80
2018-05-31T07:35:32.634Z,1.70
2018-05-31T07:38:00.160Z,2.10
2018-05-31T07:40:27.658Z,1.93
2018-05-31T07:42:55.134Z,1.63
2018-05-31T07:45:22.737Z,1.77
2018-05-31T07:47:50.297Z,1.80
2018-05-31T07:50:20.007Z,1.60
2018-05-31T07:52:47.496Z,2.00
2018-05-31T07:55:14.963Z,1.70
2018-05-31T07:57:42.474Z,1.85
2018-05-31T08:00:10.034Z,1.73
2018-05-31T08:02:37.522Z,1.70
2018-05-31T08:05:05.049Z,2.00
2018-05-31T08:07:34.224Z,1.55
2018-05-31T08:10:01.811Z,1.80
2018-05-31T08:12:29.282Z,1.85
2018-05-31T08:15:02.761Z,1.77
2018-05-31T08:17:30.318Z,1.62
2018-05-31T08:19:57.874Z,1.83
2018-05-31T08:22:25.408Z,1.85
2018-05-31T08:24:52.892Z,1.85
2018-05-31T08:27:20.409Z,2.08
2018-05-31T08:29:47.891Z,2.00
2018-05-31T08:32:15.468Z,1.90
2018-05-31T08:34:43.026Z,1.73
2018-05-31T08:37:13.657Z,2.08
2018-05-31T08:39:41.197Z,1.60
2018-05-31T08:42:08.680Z,1.80
2018-05-31T08:44:36.198Z,2.35
2018-05-31T08:47:03.707Z,1.80
2018-05-31T08:49:31.246Z,1.62
2018-05-31T08:51:58.810Z,1.87
2018-05-31T08:54:26.365Z,1.67
2018-05-31T08:56:53.911Z,1.60
2018-05-31T08:59:21.480Z,2.00
2018-05-31T09:01:48.965Z,1.75
2018-05-31T09:04:16.497Z,1.50
2018-05-31T09:06:44.059Z,1.70
2018-05-31T09:09:11.616Z,1.42
2018-05-31T09:11:39.174Z,1.67
2018-05-31T09:14:06.664Z,1.87
2018-05-31T09:16:34.149Z,1.55
2018-05-31T09:19:01.633Z,2.10
2018-05-31T09:21:29.123Z,2.08
2018-05-31T09:23:56.599Z,1.80
2018-05-31T09:26:24.121Z,1.87
2018-05-31T09:28:51.610Z,1.60
2018-05-31T09:31:19.091Z,1.60
2018-05-31T09:33:46.588Z,1.77
2018-05-31T09:36:14.148Z,1.50
2018-05-31T09:38:41.625Z,1.48
2018-05-31T09:41:09.174Z,1.50
2018-05-31T09:43:36.667Z,1.30
2018-05-31T09:46:04.144Z,1.40
2018-05-31T09:48:31.619Z,1.12
2018-05-31T09:50:59.103Z,1.30
2018-05-31T09:53:26.595Z,1.25
2018-05-31T09:55:54.067Z,1.17
2018-05-31T09:58:21.614Z,1.20
2018-05-31T10:00:49.124Z,1.42
2018-05-31T10:03:16.686Z,1.23
2018-05-31T10:05:44.240Z,1.12
2018-05-31T10:08:11.799Z,1.52
2018-05-31T10:10:39.302Z,1.10
2018-05-31T10:13:06.816Z,1.10
2018-05-31T10:15:34.291Z,0.98
2018-05-31T10:18:01.831Z,0.90
2018-05-31T10:20:29.346Z,1.10
2018-05-31T10:22:56.827Z,0.88
2018-05-31T10:25:24.323Z,1.02
2018-05-31T10:27:51.805Z,1.05
2018-05-31T10:30:19.320Z,1.20
2018-05-31T10:32:46.800Z,1.00
2018-05-31T10:35:14.334Z,1.17
2018-05-31T10:37:41.825Z,1.00
2018-05-31T10:40:09.303Z,1.10
2018-05-31T10:42:36.827Z,1.00
2018-05-31T10:45:05.080Z,0.90
2018-05-31T10:47:32.632Z,1.10
2018-05-31T10:50:00.202Z,0.90
2018-05-31T10:52:27.679Z,0.75
2018-05-31T10:54:55.213Z,0.98
2018-05-31T10:57:22.772Z,1.02
2018-05-31T10:59:50.243Z,0.90
2018-05-31T11:02:17.711Z,0.93
2018-05-31T11:04:45.244Z,1.00
2018-05-31T11:07:12.803Z,0.90
2018-05-31T11:09:40.362Z,0.98
2018-05-31T11:12:07.921Z,0.90
2018-05-31T11:14:35.408Z,1.20
2018-05-31T11:17:03.960Z,1.05
2018-05-31T11:19:31.455Z,1.00
2018-05-31T11:21:58.943Z,1.10
2018-05-31T11:24:27.175Z,0.90
2018-05-31T11:26:54.809Z,1.02
2018-05-31T11:29:22.370Z,1.30
2018-05-31T11:31:49.923Z,0.98
2018-05-31T11:34:17.409Z,0.88
2018-05-31T11:36:44.906Z,0.93
2018-05-31T11:39:12.398Z,1.08
2018-05-31T11:41:39.984Z,1.37
2018-05-31T11:44:07.458Z,0.73
2018-05-31T11:46:34.942Z,1.00
2018-05-31T11:49:02.435Z,0.80
2018-05-31T11:51:29.931Z,0.80
2018-05-31T11:53:57.446Z,1.05
2018-05-31T11:56:25.589Z,0.98
2018-05-31T11:58:53.075Z,0.88
2018-05-31T12:01:20.550Z,1.00
2018-05-31T12:03:48.038Z,0.77
2018-05-31T12:06:15.542Z,0.77
2018-05-31T12:08:43.023Z,0.70
2018-05-31T12:11:10.508Z,1.10
2018-05-31T12:13:38.021Z,1.00
2018-05-31T12:16:05.496Z,1.00
2018-05-31T12:18:33.036Z,0.90
2018-05-31T12:21:00.510Z,0.88
2018-05-31T12:23:27.998Z,1.00
2018-05-31T12:25:55.496Z,1.12
2018-05-31T12:28:23.070Z,0.90
2018-05-31T12:30:50.543Z,1.02
2018-05-31T12:33:18.081Z,0.90
2018-05-31T12:35:45.641Z,0.90
2018-05-31T12:38:13.301Z,0.90
2018-05-31T12:40:40.803Z,0.77
2018-05-31T12:43:08.288Z,0.82
2018-05-31T12:45:35.885Z,0.95
2018-05-31T12:48:03.374Z,0.70
2018-05-31T12:50:30.900Z,0.77
2018-05-31T12:52:58.454Z,0.82
2018-05-31T12:55:25.943Z,1.08
2018-05-31T12:57:53.488Z,0.70
2018-05-31T13:00:20.974Z,1.00
2018-05-31T13:02:48.484Z,0.90
2018-05-31T13:05:16.040Z,0.90
2018-05-31T13:07:43.595Z,0.98
2018-05-31T13:10:11.088Z,0.75
2018-05-31T13:12:38.575Z,0.88
2018-05-31T13:15:06.050Z,0.80
2018-05-31T13:17:33.547Z,0.77
2018-05-31T13:20:01.035Z,0.77
2018-05-31T13:22:28.523Z,0.80
2018-05-31T13:24:56.102Z,0.88
2018-05-31T13:27:23.663Z,0.80
2018-05-31T13:29:51.146Z,1.23
2018-05-31T13:32:18.635Z,0.90
2018-05-31T13:34:46.132Z,0.90
2018-05-31T13:37:13.619Z,0.80
2018-05-31T13:39:41.140Z,0.70
2018-05-31T13:42:09.265Z,0.90
2018-05-31T13:44:36.813Z,0.70
2018-05-31T13:47:04.305Z,0.80
2018-05-31T13:49:31.894Z,0.70
2018-05-31T13:51:59.382Z,0.88
2018-05-31T13:54:26.910Z,1.02
2018-05-31T13:56:54.463Z,0.75
2018-05-31T13:59:21.999Z,1.00
2018-05-31T14:01:49.586Z,0.70
2018-05-31T14:04:17.058Z,1.00
2018-05-31T14:06:44.602Z,0.80
2018-05-31T14:09:12.091Z,0.90
2018-05-31T14:11:39.558Z,0.90
2018-05-31T14:14:07.035Z,0.90
2018-05-31T14:16:34.647Z,0.90
2018-05-31T14:19:02.133Z,0.90
2018-05-31T14:21:29.608Z,1.20
2018-05-31T14:23:57.187Z,0.82
2018-05-31T14:26:26.367Z,1.00
2018-05-31T14:28:53.964Z,0.80
2018-05-31T14:31:22.679Z,0.77
2018-05-31T14:33:50.207Z,1.08
2018-05-31T14:36:17.681Z,0.98
2018-05-31T14:38:45.170Z,1.20
2018-05-31T14:41:12.657Z,1.37
2018-05-31T14:43:40.158Z,1.20
2018-05-31T14:46:08.723Z,1.25
2018-05-31T14:48:36.380Z,1.10
2018-05-31T14:51:03.871Z,1.15
2018-05-31T14:53:31.498Z,1.00
2018-05-31T14:56:01.419Z,1.35
2018-05-31T14:58:29.041Z,1.00
2018-05-31T15:00:56.655Z,1.23
2018-05-31T15:03:24.139Z,1.20
2018-05-31T15:05:53.334Z,1.30
2018-05-31T15:08:20.843Z,1.40
2018-05-31T15:10:48.404Z,0.90
2018-05-31T15:13:16.066Z,1.02
2018-05-31T15:15:43.623Z,1.00
2018-05-31T15:18:11.120Z,1.00
2018-05-31T15:20:38.653Z,1.10
2018-05-31T15:23:06.146Z,1.20
2018-05-31T15:25:33.655Z,0.77
2018-05-31T15:28:01.126Z,1.10
2018-05-31T15:30:28.670Z,1.02
2018-05-31T15:32:56.229Z,1.02
2018-05-31T15:35:23.735Z,1.12
2018-05-31T15:37:51.262Z,2.90
2018-05-31T15:40:18.757Z,1.30
2018-05-31T15:42:46.246Z,1.10
2018-05-31T15:45:13.818Z,1.25
2018-05-31T15:47:41.382Z,0.95
2018-05-31T15:50:08.936Z,1.20
2018-05-31T15:52:36.497Z,1.00
2018-05-31T15:55:04.035Z,1.08
2018-05-31T15:57:31.529Z,1.05
2018-05-31T15:59:59.069Z,0.95
2018-05-31T16:02:26.628Z,0.90
2018-05-31T16:04:54.144Z,1.00
2018-05-31T16:07:21.653Z,1.10
2018-05-31T16:09:49.197Z,1.10
2018-05-31T16:12:16.673Z,0.90
2018-05-31T16:14:44.217Z,0.90
2018-05-31T16:17:11.775Z,1.08
2018-05-31T16:19:39.268Z,1.10
2018-05-31T16:22:06.920Z,1.17
2018-05-31T16:24:34.391Z,1.10
2018-05-31T16:27:01.865Z,1.00
2018-05-31T16:29:29.359Z,2.20
2018-05-31T16:31:56.865Z,1.00
2018-05-31T16:34:24.340Z,1.23
2018-05-31T16:36:51.827Z,1.20
2018-05-31T16:39:19.307Z,0.80
2018-05-31T16:41:46.782Z,1.00
2018-05-31T16:44:14.315Z,0.90
2018-05-31T16:46:41.795Z,1.12
2018-05-31T16:49:09.327Z,0.90
2018-05-31T16:51:36.823Z,1.92
2018-05-31T16:54:04.338Z,0.80
2018-05-31T16:56:31.818Z,0.80
2018-05-31T16:58:59.303Z,0.82
2018-05-31T17:01:26.809Z,1.00
2018-05-31T17:03:54.279Z,0.90
2018-05-31T17:06:21.805Z,1.10
2018-05-31T17:08:49.292Z,2.05
2018-05-31T17:11:16.766Z,1.40
2018-05-31T17:13:44.279Z,1.00
2018-05-31T17:16:11.758Z,0.90
2018-05-31T17:18:39.264Z,0.80
2018-05-31T17:21:06.770Z,0.88
2018-05-31T17:23:34.244Z,1.00
2018-05-31T17:26:01.719Z,0.70
2018-05-31T17:28:29.225Z,0.80
2018-05-31T17:30:56.707Z,0.90
2018-05-31T17:33:24.257Z,1.00
2018-05-31T17:35:51.754Z,0.88
2018-05-31T17:38:19.298Z,1.00
2018-05-31T17:40:46.831Z,0.90
2018-05-31T17:43:14.330Z,0.80
2018-05-31T17:45:41.807Z,0.82
2018-05-31T17:48:09.288Z,0.77
2018-05-31T17:50:36.867Z,1.00
2018-05-31T17:53:04.351Z,0.80
2018-05-31T17:55:31.838Z,0.90
2018-05-31T17:57:59.328Z,0.80
2018-05-31T18:00:26.811Z,0.80
2018-05-31T18:02:54.360Z,0.70
2018-05-31T18:05:21.874Z,0.85
2018-05-31T18:07:49.449Z,0.70
2018-05-31T18:10:18.664Z,0.85
2018-05-31T18:12:46.735Z,1.20
2018-05-31T18:15:15.492Z,0.90
2018-05-31T18:17:43.016Z,0.80
2018-05-31T18:20:10.641Z,0.80
2018-05-31T18:22:38.202Z,0.80
2018-05-31T18:25:05.683Z,1.20
2018-05-31T18:27:34.619Z,1.00
2018-05-31T18:30:02.212Z,1.30
2018-05-31T18:32:29.703Z,1.62
2018-05-31T18:34:57.221Z,1.90
2018-05-31T18:37:29.698Z,1.50
2018-05-31T18:39:57.219Z,3.35
2018-05-31T18:42:24.731Z,1.80
2018-05-31T18:44:54.217Z,2.78
2018-05-31T18:47:21.769Z,3.40
2018-05-31T18:49:49.305Z,3.00
2018-05-31T18:52:16.893Z,2.80
2018-05-31T18:54:45.186Z,2.12
2018-05-31T18:57:12.959Z,2.33
2018-05-31T18:59:40.453Z,2.03
2018-05-31T19:02:07.947Z,1.58
2018-05-31T19:04:35.454Z,1.70
2018-05-31T19:07:03.886Z,1.35
2018-05-31T19:09:37.384Z,1.27
2018-05-31T19:12:04.943Z,1.30
2018-05-31T19:14:32.503Z,1.20
2018-05-31T19:17:00.063Z,1.30
2018-05-31T19:19:33.147Z,1.60
2018-05-31T19:22:00.639Z,1.45
2018-05-31T19:24:33.799Z,1.30
2018-05-31T19:27:01.366Z,1.20
2018-05-31T19:29:28.922Z,1.00
2018-05-31T19:31:56.415Z,7.20
2018-05-31T19:34:23.924Z,2.28
2018-05-31T19:36:57.224Z,1.77
2018-05-31T19:39:24.784Z,1.08
2018-05-31T19:41:52.340Z,1.45
2018-05-31T19:44:25.360Z,1.52
2018-05-31T19:46:52.885Z,1.40
2018-05-31T19:49:20.356Z,1.23
2018-05-31T19:51:53.259Z,1.40
2018-05-31T19:54:20.783Z,1.30
2018-05-31T19:56:48.273Z,1.40
2018-05-31T19:59:21.487Z,1.40
2018-05-31T20:01:54.542Z,1.73
2018-05-31T20:04:22.043Z,1.10
2018-05-31T20:06:49.530Z,1.60
2018-05-31T20:09:17.027Z,1.40
2018-05-31T20:11:44.541Z,1.40
2018-05-31T20:14:12.110Z,1.27
2018-05-31T20:16:39.669Z,1.30
2018-05-31T20:19:07.230Z,1.20
2018-05-31T20:21:34.747Z,1.33
2018-05-31T20:24:02.243Z,1.10
2018-05-31T20:26:29.871Z,1.10
2018-05-31T20:28:57.360Z,1.30
2018-05-31T20:31:24.920Z,1.43
2018-05-31T20:33:52.478Z,1.50
2018-05-31T20:36:20.038Z,1.60
2018-05-31T20:38:47.561Z,1.23
2018-05-31T20:41:15.043Z,1.40
2018-05-31T20:43:42.525Z,1.30
2018-05-31T20:46:10.055Z,1.60
2018-05-31T20:48:37.559Z,1.60
2018-05-31T20:51:08.076Z,1.87
2018-05-31T20:53:35.616Z,1.70
2018-05-31T20:56:03.955Z,1.87
2018-05-31T20:58:31.435Z,1.53
2018-05-31T21:00:59.007Z,1.30
2018-05-31T21:03:26.564Z,1.43
2018-05-31T21:05:54.048Z,1.30
2018-05-31T21:08:21.530Z,1.30
2018-05-31T21:10:49.019Z,1.30
2018-05-31T21:13:16.494Z,1.40
2018-05-31T21:15:43.977Z,1.20
2018-05-31T21:18:11.458Z,0.80
2018-05-31T21:20:38.975Z,1.10
2018-05-31T21:23:06.522Z,1.37
2018-05-31T21:25:34.082Z,0.97
2018-05-31T21:28:01.564Z,1.17
2018-05-31T21:30:29.097Z,0.87
2018-05-31T21:32:56.656Z,1.10
2018-05-31T21:35:24.222Z,1.00
2018-05-31T21:37:52.536Z,1.13
2018-05-31T21:40:20.029Z,0.90
2018-05-31T21:42:47.554Z,1.00
2018-05-31T21:45:15.026Z,1.27
2018-05-31T21:47:42.510Z,0.90
2018-05-31T21:50:09.990Z,1.00
2018-05-31T21:52:37.594Z,1.00
2018-05-31T21:55:05.036Z,0.80
2018-05-31T21:57:32.552Z,0.87
2018-05-31T22:00:00.111Z,0.97
2018-05-31T22:02:27.594Z,0.80
2018-05-31T22:04:55.128Z,0.97
2018-05-31T22:07:22.683Z,1.13
2018-05-31T22:09:50.243Z,1.00
2018-05-31T22:12:17.728Z,0.70
2018-05-31T22:14:45.258Z,0.80
2018-05-31T22:17:12.818Z,0.90
2018-05-31T22:19:40.377Z,0.93
2018-05-31T22:22:07.946Z,0.80
2018-05-31T22:24:35.494Z,0.60
2018-05-31T22:27:03.053Z,0.87
2018-05-31T22:29:30.608Z,0.70
2018-05-31T22:31:58.157Z,0.80
2018-05-31T22:34:25.667Z,0.90
2018-05-31T22:36:53.201Z,0.70
2018-05-31T22:39:20.745Z,0.70
2018-05-31T22:41:48.304Z,1.03
2018-05-31T22:44:15.795Z,0.70
2018-05-31T22:46:43.323Z,0.80
2018-05-31T22:49:10.878Z,0.60
2018-05-31T22:51:38.439Z,0.60
2018-05-31T22:54:05.931Z,0.63
2018-05-31T22:56:33.421Z,0.80
2018-05-31T22:59:01.011Z,0.60
2018-05-31T23:01:28.570Z,0.70
2018-05-31T23:03:56.130Z,0.80
2018-05-31T23:06:23.618Z,0.77
2018-05-31T23:08:51.144Z,0.80
2018-05-31T23:11:18.627Z,0.67
2018-05-31T23:13:46.102Z,0.60
2018-05-31T23:16:13.618Z,0.80
2018-05-31T23:18:41.102Z,0.60
2018-05-31T23:21:08.575Z,0.70
2018-05-31T23:23:36.079Z,0.50
2018-05-31T23:26:03.554Z,0.60
2018-05-31T23:28:31.038Z,0.53
2018-05-31T23:30:58.560Z,0.50
2018-05-31T23:33:26.118Z,0.50
2018-05-31T23:35:53.595Z,0.70
2018-05-31T23:38:21.193Z,0.50
2018-05-31T23:40:48.686Z,0.93
2018-05-31T23:43:16.300Z,0.43
2018-05-31T23:45:43.813Z,0.50
2018-05-31T23:48:11.372Z,0.80
2018-05-31T23:50:38.928Z,0.57
2018-05-31T23:53:06.497Z,0.67
2018-05-31T23:55:33.994Z,0.57
2018-05-31T23:58:01.503Z,0.60
